createdAt,value
2019-04-13T00:01:27.790Z,68.52
2019-04-13T00:09:22.924Z,68.54
2019-04-13T00:17:54.933Z,68.98
2019-04-13T00:20:23.451Z,69.13
2019-04-13T00:22:51.920Z,69.87
2019-04-13T00:25:20.386Z,69.90
2019-04-13T00:28:08.105Z,70.21
2019-04-13T00:30:55.880Z,70.24
2019-04-13T00:33:24.477Z,69.38
2019-04-13T00:36:12.266Z,68.59
2019-04-13T00:38:40.779Z,69.08
2019-04-13T00:41:09.233Z,68.83
2019-04-13T00:46:31.009Z,68.94
2019-04-13T00:48:59.466Z,68.51
2019-04-13T00:51:27.960Z,68.80
2019-04-13T00:54:15.601Z,68.80
2019-04-13T00:56:44.142Z,67.94
2019-04-13T00:59:12.605Z,68.36
2019-04-13T01:01:41.059Z,69.45
2019-04-13T01:07:02.882Z,70.16
2019-04-13T01:09:50.620Z,70.50
2019-04-13T01:12:38.426Z,68.12
2019-04-13T01:15:46.916Z,68.62
2019-04-13T01:18:15.386Z,69.05
2019-04-13T01:20:43.840Z,67.94
2019-04-13T01:23:12.374Z,68.14
2019-04-13T01:25:41.161Z,67.35
2019-04-13T01:28:09.631Z,67.47
2019-04-13T01:30:38.207Z,67.92
2019-04-13T01:33:06.658Z,67.50
2019-04-13T01:35:35.107Z,67.20
2019-04-13T01:38:03.612Z,66.94
2019-04-13T01:40:32.071Z,67.11
2019-04-13T01:43:00.525Z,67.76
2019-04-13T01:45:29.083Z,67.92
2019-04-13T01:47:57.537Z,67.59
2019-04-13T01:50:25.993Z,69.01
2019-04-13T01:52:54.463Z,69.22
2019-04-13T01:55:23.061Z,69.07
2019-04-13T01:57:51.516Z,68.28
2019-04-13T02:02:55.670Z,68.61
2019-04-13T02:05:43.390Z,69.19
2019-04-13T02:08:50.270Z,69.27
2019-04-13T02:11:37.837Z,69.55
2019-04-13T02:16:59.996Z,69.39
2019-04-13T02:19:28.454Z,67.70
2019-04-13T02:21:56.950Z,67.04
2019-04-13T02:24:25.414Z,68.38
2019-04-13T02:27:13.382Z,68.40
2019-04-13T02:30:01.072Z,67.81
2019-04-13T02:32:48.915Z,67.27
2019-04-13T02:35:34.002Z,68.80
2019-04-13T02:38:06.927Z,67.87
2019-04-13T02:43:43.555Z,67.59
2019-04-13T02:46:12.003Z,69.00
2019-04-13T02:48:40.461Z,68.08
2019-04-13T02:51:28.238Z,68.56
2019-04-13T02:53:56.687Z,68.44
2019-04-13T02:56:25.144Z,68.96
2019-04-13T02:59:12.823Z,68.83
2019-04-13T03:07:42.808Z,68.96
2019-04-13T03:10:51.215Z,69.43
2019-04-13T03:13:19.740Z,69.82
2019-04-13T03:21:57.695Z,68.71
2019-04-13T03:24:45.508Z,69.58
2019-04-13T03:27:14.002Z,70.81
2019-04-13T03:29:42.459Z,71.44
2019-04-13T03:32:10.923Z,72.13
2019-04-13T03:34:58.600Z,71.95
2019-04-13T03:37:46.380Z,71.07
2019-04-13T03:40:54.796Z,71.96
2019-04-13T03:43:23.281Z,72.17
2019-04-13T03:45:51.744Z,71.47
2019-04-13T03:48:39.644Z,71.60
2019-04-13T03:51:08.112Z,70.89
2019-04-13T03:53:55.965Z,70.35
2019-04-13T03:56:43.678Z,70.15
2019-04-13T04:01:46.552Z,71.00
2019-04-13T04:06:48.704Z,71.50
2019-04-13T04:09:17.180Z,70.76
2019-04-13T04:11:45.667Z,71.41
2019-04-13T04:14:33.382Z,71.28
2019-04-13T04:17:01.899Z,71.22
2019-04-13T04:19:30.380Z,72.40
2019-04-13T04:21:58.843Z,73.30
2019-04-13T04:24:46.737Z,72.23
2019-04-13T04:27:15.199Z,72.42
2019-04-13T04:29:43.666Z,73.76
2019-04-13T04:32:12.159Z,73.08
2019-04-13T04:34:59.859Z,74.92
2019-04-13T04:37:28.389Z,75.25
2019-04-13T04:39:56.851Z,74.64
2019-04-13T04:42:25.311Z,72.51
2019-04-13T04:44:53.837Z,72.43
2019-04-13T04:47:22.290Z,72.93
2019-04-13T04:49:50.751Z,73.71
2019-04-13T04:54:52.816Z,73.17
2019-04-13T04:57:21.282Z,72.56
2019-04-13T04:59:49.794Z,73.98
2019-04-13T05:02:18.226Z,74.19
2019-04-13T05:05:06.032Z,73.55
2019-04-13T05:07:34.487Z,74.19
2019-04-13T05:10:42.922Z,73.92
2019-04-13T05:13:11.381Z,73.13
2019-04-13T05:15:39.839Z,74.00
2019-04-13T05:20:42.794Z,73.84
2019-04-13T05:23:11.287Z,74.70
2019-04-13T05:25:39.751Z,75.07
2019-04-13T05:28:08.236Z,75.74
2019-04-13T05:33:10.592Z,75.37
2019-04-13T05:35:39.049Z,77.18
2019-04-13T05:38:26.728Z,75.89
2019-04-13T05:40:55.196Z,76.56
2019-04-13T05:43:23.656Z,77.19
2019-04-13T05:45:52.155Z,76.01
2019-04-13T05:48:20.625Z,76.67
2019-04-13T05:51:08.499Z,76.60
2019-04-13T05:53:36.956Z,76.64
2019-04-13T05:56:05.440Z,77.47
2019-04-13T05:58:33.920Z,77.20
2019-04-13T06:01:02.406Z,77.81
2019-04-13T06:03:30.864Z,78.03
2019-04-13T06:08:35.925Z,78.10
2019-04-13T06:11:03.755Z,78.28
2019-04-13T06:13:32.277Z,78.62
2019-04-13T06:16:40.866Z,78.75
2019-04-13T06:19:09.323Z,77.92
2019-04-13T06:21:40.484Z,78.94
2019-04-13T06:24:27.603Z,78.54
2019-04-13T06:26:56.060Z,79.93
2019-04-13T06:29:24.516Z,79.22
2019-04-13T06:32:12.132Z,78.68
2019-04-13T06:37:29.712Z,78.44
2019-04-13T06:40:17.412Z,78.02
2019-04-13T06:42:49.866Z,77.28
2019-04-13T06:45:35.408Z,77.65
2019-04-13T06:50:39.523Z,76.64
2019-04-13T06:53:27.173Z,77.02
2019-04-13T06:58:30.056Z,76.87
2019-04-13T07:01:17.990Z,77.27
2019-04-13T07:03:46.468Z,78.09
2019-04-13T07:06:14.932Z,78.30
2019-04-13T07:09:02.689Z,78.44
2019-04-13T07:11:50.430Z,78.67
2019-04-13T07:14:19.038Z,79.51
2019-04-13T07:17:06.633Z,80.78
2019-04-13T07:19:54.308Z,81.22
2019-04-13T07:22:41.968Z,80.54
2019-04-13T07:25:10.853Z,81.08
2019-04-13T07:27:40.651Z,81.70
2019-04-13T07:30:28.517Z,81.52
2019-04-13T07:32:56.972Z,82.16
2019-04-13T07:35:44.653Z,81.08
2019-04-13T07:38:15.457Z,80.27
2019-04-13T07:40:43.302Z,80.63
2019-04-13T07:43:11.784Z,80.59
2019-04-13T07:48:48.476Z,81.81
2019-04-13T07:54:06.853Z,81.92
2019-04-13T07:56:55.551Z,81.79
2019-04-13T07:59:24.041Z,81.90
2019-04-13T08:02:32.410Z,81.43
2019-04-13T08:05:00.904Z,81.83
2019-04-13T08:07:29.360Z,81.47
2019-04-13T08:09:57.820Z,81.36
2019-04-13T08:15:00.595Z,80.57
2019-04-13T08:20:29.819Z,79.73
2019-04-13T08:28:21.369Z,79.78
2019-04-13T08:33:43.567Z,78.57
2019-04-13T08:36:31.326Z,77.69
2019-04-13T08:38:59.797Z,78.19
2019-04-13T08:41:28.324Z,79.13
2019-04-13T08:43:56.809Z,80.08
2019-04-13T08:46:27.956Z,77.14
2019-04-13T08:48:55.505Z,78.11
2019-04-13T08:51:23.994Z,76.60
2019-04-13T08:53:52.450Z,78.36
2019-04-13T08:56:20.977Z,78.98
2019-04-13T08:58:49.463Z,82.17
2019-04-13T09:01:17.929Z,83.56
2019-04-13T09:03:46.393Z,85.41
2019-04-13T09:06:17.315Z,84.54
2019-04-13T09:08:45.128Z,84.67
2019-04-13T09:11:18.031Z,84.79
2019-04-13T09:13:44.171Z,85.00
2019-04-13T09:16:14.963Z,83.50
2019-04-13T09:26:47.187Z,80.38
2019-04-13T09:29:15.683Z,77.74
2019-04-13T09:34:34.917Z,76.16
2019-04-13T09:37:03.456Z,71.83
2019-04-13T09:39:31.907Z,71.66
2019-04-13T09:42:00.426Z,73.13
2019-04-13T09:45:08.797Z,70.95
2019-04-13T09:50:11.031Z,64.73
2019-04-13T09:52:39.495Z,65.23
2019-04-13T09:55:08.150Z,64.26
2019-04-13T09:57:36.682Z,62.53
2019-04-13T10:03:00.985Z,62.12
2019-04-13T10:05:29.963Z,63.79
2019-04-13T10:07:59.532Z,61.96
2019-04-13T10:10:27.993Z,62.68
2019-04-13T10:15:55.347Z,63.22
2019-04-13T10:18:42.995Z,63.15
2019-04-13T10:21:13.160Z,61.50
2019-04-13T10:23:41.662Z,60.05
2019-04-13T10:26:15.611Z,59.47
2019-04-13T10:31:14.140Z,58.45
2019-04-13T10:34:01.957Z,59.09
2019-04-13T10:36:49.602Z,58.85
2019-04-13T10:39:37.366Z,56.19
2019-04-13T10:42:05.955Z,57.71
2019-04-13T10:44:53.931Z,55.41
2019-04-13T10:47:41.500Z,55.82
2019-04-13T10:50:49.895Z,55.58
2019-04-13T10:58:39.856Z,56.77
2019-04-13T11:01:08.477Z,56.22
2019-04-13T11:03:36.951Z,57.04
2019-04-13T11:06:24.709Z,55.73
2019-04-13T11:09:21.273Z,55.23
2019-04-13T11:11:42.874Z,56.14
2019-04-13T11:14:11.475Z,57.02
2019-04-13T11:16:59.353Z,55.52
2019-04-13T11:19:47.070Z,55.19
2019-04-13T11:22:15.601Z,55.40
2019-04-13T11:24:44.054Z,54.19
2019-04-13T11:27:31.899Z,50.77
2019-04-13T11:30:00.429Z,50.81
2019-04-13T11:35:16.358Z,52.57
2019-04-13T11:37:44.887Z,52.42
2019-04-13T11:40:53.299Z,52.13
2019-04-13T11:43:40.977Z,52.02
2019-04-13T11:46:29.359Z,52.36
2019-04-13T11:52:07.236Z,52.57
2019-04-13T11:54:35.689Z,52.54
2019-04-13T11:57:04.223Z,51.70
2019-04-13T11:59:51.947Z,50.76
2019-04-13T12:02:39.592Z,51.70
2019-04-13T12:05:48.035Z,50.16
2019-04-13T12:08:59.272Z,49.95
2019-04-13T12:11:44.217Z,50.33
2019-04-13T12:14:34.603Z,49.68
2019-04-13T12:17:21.204Z,49.68
2019-04-13T12:20:28.108Z,49.66
2019-04-13T12:25:50.107Z,48.69
2019-04-13T12:28:18.595Z,49.72
2019-04-13T12:33:55.510Z,48.82
2019-04-13T12:36:25.035Z,49.19
2019-04-13T12:42:08.068Z,48.24
2019-04-13T12:50:18.308Z,48.98
2019-04-13T12:52:46.766Z,48.07
2019-04-13T12:55:34.639Z,49.05
2019-04-13T12:58:23.118Z,49.38
2019-04-13T13:01:13.482Z,49.18
2019-04-13T13:06:31.843Z,48.72
2019-04-13T13:09:20.332Z,48.10
2019-04-13T13:11:48.828Z,48.94
2019-04-13T13:14:36.468Z,48.55
2019-04-13T13:17:26.069Z,47.37
2019-04-13T13:19:54.469Z,46.42
2019-04-13T13:22:22.989Z,45.80
2019-04-13T13:24:51.468Z,45.54
2019-04-13T13:27:19.917Z,45.11
2019-04-13T13:30:07.636Z,45.59
2019-04-13T13:32:36.089Z,45.71
2019-04-13T13:35:44.495Z,44.84
2019-04-13T13:38:12.967Z,45.21
2019-04-13T13:41:00.881Z,45.61
2019-04-13T13:43:29.330Z,44.96
2019-04-13T13:45:57.789Z,43.76
2019-04-13T13:48:26.276Z,43.75
2019-04-13T13:50:54.742Z,44.29
2019-04-13T13:53:23.185Z,45.08
2019-04-13T13:56:10.863Z,44.25
2019-04-13T13:58:58.438Z,44.89
2019-04-13T14:01:46.117Z,44.53
2019-04-13T14:04:14.569Z,46.79
2019-04-13T14:09:30.872Z,50.99
2019-04-13T14:12:18.442Z,52.40
2019-04-13T14:14:46.921Z,52.26
2019-04-13T14:17:15.386Z,52.69
2019-04-13T14:19:43.826Z,52.94
2019-04-13T14:22:31.718Z,55.09
2019-04-13T14:25:19.406Z,54.59
2019-04-13T14:27:47.917Z,53.39
2019-04-13T14:30:56.277Z,53.47
2019-04-13T14:33:24.760Z,54.39
2019-04-13T14:36:12.550Z,55.45
2019-04-13T14:39:02.873Z,53.40
2019-04-13T14:41:30.607Z,54.06
2019-04-13T14:44:19.608Z,53.19
2019-04-13T14:46:48.470Z,54.67
2019-04-13T14:49:16.918Z,53.86
2019-04-13T14:54:20.193Z,52.68
2019-04-13T14:59:43.722Z,52.58
2019-04-13T15:02:12.197Z,51.69
2019-04-13T15:04:41.077Z,52.20
2019-04-13T15:07:10.861Z,52.64
2019-04-13T15:09:58.611Z,52.50
2019-04-13T15:12:46.399Z,52.94
2019-04-13T15:15:54.819Z,52.83
2019-04-13T15:18:44.664Z,52.78
2019-04-13T15:21:13.240Z,52.59
2019-04-13T15:23:44.213Z,52.04
2019-04-13T15:26:14.415Z,51.49
2019-04-13T15:31:38.333Z,50.29
2019-04-13T15:34:29.874Z,50.40
2019-04-13T15:37:00.343Z,48.97
2019-04-13T15:42:20.829Z,48.72
2019-04-13T15:44:50.181Z,48.91
2019-04-13T15:47:19.138Z,47.64
2019-04-13T15:49:46.061Z,48.43
2019-04-13T15:52:14.499Z,48.51
2019-04-13T15:54:43.597Z,48.08
2019-04-13T15:59:46.769Z,50.21
2019-04-13T16:02:15.218Z,49.71
2019-04-13T16:04:45.598Z,49.41
2019-04-13T16:10:20.565Z,51.19
2019-04-13T16:15:58.101Z,50.30
2019-04-13T16:18:28.239Z,53.37
2019-04-13T16:20:57.588Z,51.97
2019-04-13T16:23:47.116Z,53.04
2019-04-13T16:26:15.562Z,53.79
2019-04-13T16:29:03.527Z,52.91
2019-04-13T16:31:51.117Z,53.34
2019-04-13T16:34:38.736Z,53.19
2019-04-13T16:37:26.343Z,52.33
2019-04-13T16:39:55.791Z,52.19
2019-04-13T16:45:34.117Z,53.65
2019-04-13T16:48:43.301Z,54.35
2019-04-13T16:51:31.463Z,54.32
2019-04-13T16:54:19.110Z,54.67
2019-04-13T16:57:06.787Z,54.36
2019-04-13T16:59:54.383Z,55.57
2019-04-13T17:02:42.363Z,55.36
2019-04-13T17:10:54.124Z,56.60
2019-04-13T17:16:17.567Z,57.98
2019-04-13T17:19:05.560Z,58.79
2019-04-13T17:27:37.818Z,62.99
2019-04-13T17:30:47.532Z,63.46
2019-04-13T17:38:25.625Z,66.61
2019-04-13T17:41:19.543Z,67.12
2019-04-13T17:46:57.460Z,66.43
2019-04-13T17:49:45.061Z,68.03
2019-04-13T17:55:46.699Z,72.00
2019-04-13T17:58:35.428Z,73.02
2019-04-13T18:01:23.734Z,72.31
2019-04-13T18:04:30.928Z,71.94
2019-04-13T18:07:18.606Z,71.45
2019-04-13T18:10:06.722Z,71.17
2019-04-13T18:13:13.722Z,69.38
2019-04-13T18:21:07.942Z,69.55
2019-04-13T18:23:38.183Z,69.77
2019-04-13T18:29:00.990Z,70.72
2019-04-13T18:31:31.460Z,70.68
2019-04-13T18:34:22.370Z,70.37
2019-04-13T18:36:50.753Z,71.12
2019-04-13T18:39:21.202Z,70.42
2019-04-13T18:42:10.179Z,71.00
2019-04-13T18:44:38.631Z,71.30
2019-04-13T18:47:07.911Z,71.81
2019-04-13T18:52:30.388Z,71.83
2019-04-13T18:54:59.496Z,71.65
2019-04-13T18:57:29.673Z,72.03
2019-04-13T18:59:59.212Z,72.13
2019-04-13T19:02:28.962Z,73.12
2019-04-13T19:04:57.872Z,74.28
2019-04-13T19:07:45.611Z,74.52
2019-04-13T19:10:14.146Z,74.37
2019-04-13T19:12:42.597Z,74.97
2019-04-13T19:15:11.329Z,75.35
2019-04-13T19:17:40.164Z,75.44
2019-04-13T19:20:48.922Z,76.12
2019-04-13T19:23:17.374Z,76.40
2019-04-13T19:26:05.446Z,76.08
2019-04-13T19:28:33.898Z,75.80
2019-04-13T19:31:02.351Z,75.10
2019-04-13T19:33:30.877Z,75.39
2019-04-13T19:35:59.327Z,75.24
2019-04-13T19:38:27.774Z,75.29
2019-04-13T19:41:15.508Z,75.31
2019-04-13T19:43:43.957Z,74.82
2019-04-13T19:46:12.401Z,75.98
2019-04-13T19:51:52.920Z,75.55
2019-04-13T19:59:35.020Z,76.08
2019-04-13T20:07:32.571Z,75.06
2019-04-13T20:10:01.023Z,75.13
2019-04-13T20:12:49.070Z,75.46
2019-04-13T20:15:38.186Z,75.28
2019-04-13T20:18:26.276Z,76.02
2019-04-13T20:20:54.743Z,76.00
2019-04-13T20:23:23.194Z,76.05
2019-04-13T20:28:26.524Z,76.30
2019-04-13T20:33:30.881Z,78.27
2019-04-13T20:36:22.568Z,77.74
2019-04-13T20:38:50.256Z,78.04
2019-04-13T20:41:45.683Z,78.03
2019-04-13T20:44:12.655Z,77.72
2019-04-13T20:46:58.125Z,77.95
2019-04-13T20:49:28.069Z,77.05
2019-04-13T20:51:57.821Z,77.70
2019-04-13T20:57:00.313Z,78.04
2019-04-13T20:59:28.816Z,77.19
2019-04-13T21:01:58.109Z,78.49
2019-04-13T21:09:50.302Z,80.20
2019-04-13T21:17:52.873Z,78.76
2019-04-13T21:22:56.026Z,79.28
2019-04-13T21:25:25.147Z,80.57
2019-04-13T21:30:29.320Z,79.36
2019-04-13T21:35:33.841Z,80.63
2019-04-13T21:38:23.498Z,80.19
2019-04-13T21:41:12.906Z,79.86
2019-04-13T21:46:17.338Z,80.20
2019-04-13T21:48:46.590Z,80.74
2019-04-13T21:51:53.532Z,80.98
2019-04-13T21:57:17.667Z,80.78
2019-04-13T22:02:56.649Z,81.19
2019-04-13T22:05:44.191Z,82.12
2019-04-13T22:10:48.582Z,82.11
2019-04-13T22:13:18.529Z,82.42
2019-04-13T22:15:48.416Z,83.04
2019-04-13T22:18:19.240Z,83.23
2019-04-13T22:20:49.330Z,83.17
2019-04-13T22:23:38.888Z,84.60
2019-04-13T22:26:08.848Z,84.81
2019-04-13T22:28:58.373Z,83.74
2019-04-13T22:31:48.073Z,84.42
2019-04-13T22:34:37.877Z,84.90
2019-04-13T22:37:08.112Z,84.03
2019-04-13T22:39:37.807Z,84.36
2019-04-13T22:42:07.818Z,85.86
2019-04-13T22:52:45.991Z,85.10
2019-04-13T22:55:35.747Z,84.90
2019-04-13T23:00:56.684Z,87.56
2019-04-13T23:05:59.095Z,90.35
2019-04-13T23:08:27.556Z,92.32
2019-04-13T23:10:57.192Z,93.35
2019-04-13T23:16:01.932Z,93.24
2019-04-13T23:18:31.824Z,93.36
2019-04-13T23:21:01.112Z,93.06
2019-04-13T23:23:29.577Z,93.26
2019-04-13T23:26:17.344Z,92.14
2019-04-13T23:28:46.747Z,92.68
2019-04-13T23:31:35.360Z,93.99
2019-04-13T23:34:23.013Z,94.82
2019-04-13T23:36:51.495Z,94.28
2019-04-13T23:39:19.956Z,94.67
2019-04-13T23:41:49.435Z,93.52
2019-04-13T23:46:52.696Z,93.31
2019-04-13T23:49:21.151Z,93.71
2019-04-13T23:54:23.958Z,95.07
2019-04-13T23:57:13.843Z,94.31
